sensor_id;sensor_type;location;lat;lon;timestamp;P1;durP1;ratioP1;P2;durP2;ratioP2
10920;SDS011;5513;50.580;8.818;2022-10-18T00:01:34;10.30;;;7.07;;
10920;SDS011;5513;50.580;8.818;2022-10-18T00:04:02;11.70;;;7.33;;
10920;SDS011;5513;50.580;8.818;2022-10-18T00:06:31;9.53;;;6.63;;
10920;SDS011;5513;50.580;8.818;2022-10-18T00:08:59;14.20;;;7.17;;
10920;SDS011;5513;50.580;8.818;2022-10-18T00:11:32;16.97;;;6.90;;
10920;SDS011;5513;50.580;8.818;2022-10-18T00:14:04;14.23;;;6.33;;
10920;SDS011;5513;50.580;8.818;2022-10-18T00:16:34;7.60;;;5.93;;
10920;SDS011;5513;50.580;8.818;2022-10-18T00:19:02;8.30;;;6.77;;
10920;SDS011;5513;50.580;8.818;2022-10-18T00:21:31;12.17;;;6.10;;
10920;SDS011;5513;50.580;8.818;2022-10-18T00:23:59;11.60;;;7.57;;
10920;SDS011;5513;50.580;8.818;2022-10-18T00:26:29;17.20;;;7.97;;
10920;SDS011;5513;50.580;8.818;2022-10-18T00:28:59;17.63;;;8.53;;
10920;SDS011;5513;50.580;8.818;2022-10-18T00:31:31;16.70;;;8.30;;
10920;SDS011;5513;50.580;8.818;2022-10-18T00:34:03;13.20;;;7.63;;
10920;SDS011;5513;50.580;8.818;2022-10-18T00:36:36;11.27;;;7.47;;
10920;SDS011;5513;50.580;8.818;2022-10-18T00:39:06;14.03;;;7.47;;
10920;SDS011;5513;50.580;8.818;2022-10-18T00:41:37;14.33;;;7.07;;
10920;SDS011;5513;50.580;8.818;2022-10-18T00:47:15;12.43;;;7.37;;
10920;SDS011;5513;50.580;8.818;2022-10-18T00:49:47;15.60;;;7.00;;
10920;SDS011;5513;50.580;8.818;2022-10-18T00:52:20;11.00;;;6.93;;
10920;SDS011;5513;50.580;8.818;2022-10-18T00:54:50;14.23;;;7.67;;
10920;SDS011;5513;50.580;8.818;2022-10-18T00:57:20;10.97;;;6.67;;
10920;SDS011;5513;50.580;8.818;2022-10-18T00:59:49;12.80;;;7.60;;
10920;SDS011;5513;50.580;8.818;2022-10-18T01:02:18;15.37;;;7.00;;
10920;SDS011;5513;50.580;8.818;2022-10-18T01:04:48;13.53;;;7.00;;
10920;SDS011;5513;50.580;8.818;2022-10-18T01:07:19;11.57;;;6.47;;
10920;SDS011;5513;50.580;8.818;2022-10-18T01:09:59;12.07;;;7.00;;
10920;SDS011;5513;50.580;8.818;2022-10-18T01:12:39;13.53;;;7.20;;
10920;SDS011;5513;50.580;8.818;2022-10-18T01:15:15;12.73;;;6.50;;
10920;SDS011;5513;50.580;8.818;2022-10-18T01:17:57;16.60;;;7.47;;
10920;SDS011;5513;50.580;8.818;2022-10-18T01:20:45;17.33;;;8.27;;
10920;SDS011;5513;50.580;8.818;2022-10-18T01:24:04;16.77;;;8.43;;
10920;SDS011;5513;50.580;8.818;2022-10-18T01:26:51;15.07;;;7.60;;
10920;SDS011;5513;50.580;8.818;2022-10-18T01:29:31;12.90;;;8.20;;
10920;SDS011;5513;50.580;8.818;2022-10-18T01:32:14;13.47;;;7.80;;
10920;SDS011;5513;50.580;8.818;2022-10-18T01:34:47;13.70;;;7.83;;
10920;SDS011;5513;50.580;8.818;2022-10-18T01:37:20;12.70;;;7.50;;
10920;SDS011;5513;50.580;8.818;2022-10-18T01:39:50;12.70;;;7.20;;
10920;SDS011;5513;50.580;8.818;2022-10-18T01:42:22;12.90;;;7.70;;
10920;SDS011;5513;50.580;8.818;2022-10-18T01:44:52;13.27;;;8.30;;
10920;SDS011;5513;50.580;8.818;2022-10-18T01:47:23;11.87;;;7.90;;
10920;SDS011;5513;50.580;8.818;2022-10-18T01:49:56;11.90;;;7.60;;
10920;SDS011;5513;50.580;8.818;2022-10-18T01:52:26;13.07;;;7.03;;
10920;SDS011;5513;50.580;8.818;2022-10-18T01:54:58;11.80;;;7.47;;
10920;SDS011;5513;50.580;8.818;2022-10-18T01:57:31;9.87;;;7.10;;
10920;SDS011;5513;50.580;8.818;2022-10-18T02:00:09;8.73;;;6.87;;
10920;SDS011;5513;50.580;8.818;2022-10-18T02:02:45;8.43;;;7.03;;
10920;SDS011;5513;50.580;8.818;2022-10-18T02:05:27;13.00;;;7.63;;
10920;SDS011;5513;50.580;8.818;2022-10-18T02:08:00;13.53;;;7.80;;
10920;SDS011;5513;50.580;8.818;2022-10-18T02:10:49;11.63;;;7.30;;
10920;SDS011;5513;50.580;8.818;2022-10-18T02:13:22;11.57;;;7.93;;
10920;SDS011;5513;50.580;8.818;2022-10-18T02:15:53;11.50;;;8.10;;
10920;SDS011;5513;50.580;8.818;2022-10-18T02:18:29;9.73;;;7.87;;
10920;SDS011;5513;50.580;8.818;2022-10-18T02:21:03;10.20;;;7.93;;
10920;SDS011;5513;50.580;8.818;2022-10-18T02:23:35;10.33;;;7.77;;
10920;SDS011;5513;50.580;8.818;2022-10-18T02:26:05;10.63;;;7.43;;
10920;SDS011;5513;50.580;8.818;2022-10-18T02:28:34;10.53;;;7.67;;
10920;SDS011;5513;50.580;8.818;2022-10-18T02:31:03;8.80;;;7.90;;
10920;SDS011;5513;50.580;8.818;2022-10-18T02:33:37;8.53;;;6.93;;
10920;SDS011;5513;50.580;8.818;2022-10-18T02:36:26;11.67;;;7.10;;
10920;SDS011;5513;50.580;8.818;2022-10-18T02:39:01;9.83;;;7.40;;
10920;SDS011;5513;50.580;8.818;2022-10-18T02:41:33;12.63;;;7.73;;
10920;SDS011;5513;50.580;8.818;2022-10-18T02:44:02;12.37;;;7.90;;
10920;SDS011;5513;50.580;8.818;2022-10-18T02:46:30;11.53;;;8.10;;
10920;SDS011;5513;50.580;8.818;2022-10-18T02:49:02;10.47;;;7.93;;
10920;SDS011;5513;50.580;8.818;2022-10-18T02:51:31;12.23;;;7.13;;
10920;SDS011;5513;50.580;8.818;2022-10-18T02:54:00;11.67;;;6.73;;
10920;SDS011;5513;50.580;8.818;2022-10-18T02:56:29;9.27;;;7.00;;
10920;SDS011;5513;50.580;8.818;2022-10-18T02:58:57;8.67;;;7.40;;
10920;SDS011;5513;50.580;8.818;2022-10-18T03:01:25;10.03;;;7.60;;
10920;SDS011;5513;50.580;8.818;2022-10-18T03:03:54;11.33;;;7.80;;
10920;SDS011;5513;50.580;8.818;2022-10-18T03:06:24;10.13;;;7.73;;
10920;SDS011;5513;50.580;8.818;2022-10-18T03:08:53;10.37;;;7.57;;
10920;SDS011;5513;50.580;8.818;2022-10-18T03:11:22;9.47;;;7.63;;
10920;SDS011;5513;50.580;8.818;2022-10-18T03:13:51;8.63;;;7.53;;
10920;SDS011;5513;50.580;8.818;2022-10-18T03:16:22;12.30;;;7.87;;
10920;SDS011;5513;50.580;8.818;2022-10-18T03:18:51;11.27;;;7.57;;
10920;SDS011;5513;50.580;8.818;2022-10-18T03:21:19;10.47;;;7.93;;
10920;SDS011;5513;50.580;8.818;2022-10-18T03:23:50;7.73;;;6.97;;
10920;SDS011;5513;50.580;8.818;2022-10-18T03:26:20;10.33;;;7.53;;
10920;SDS011;5513;50.580;8.818;2022-10-18T03:28:50;8.23;;;7.07;;
10920;SDS011;5513;50.580;8.818;2022-10-18T03:31:18;9.07;;;7.67;;
10920;SDS011;5513;50.580;8.818;2022-10-18T03:33:47;11.53;;;8.23;;
10920;SDS011;5513;50.580;8.818;2022-10-18T03:36:15;10.23;;;8.30;;
10920;SDS011;5513;50.580;8.818;2022-10-18T03:38:44;11.87;;;8.47;;
10920;SDS011;5513;50.580;8.818;2022-10-18T03:41:13;11.27;;;8.33;;
10920;SDS011;5513;50.580;8.818;2022-10-18T03:43:42;13.30;;;8.57;;
10920;SDS011;5513;50.580;8.818;2022-10-18T03:46:10;11.60;;;8.33;;
10920;SDS011;5513;50.580;8.818;2022-10-18T03:48:39;11.67;;;8.70;;
10920;SDS011;5513;50.580;8.818;2022-10-18T03:51:07;12.77;;;8.77;;
10920;SDS011;5513;50.580;8.818;2022-10-18T03:53:35;12.40;;;8.83;;
10920;SDS011;5513;50.580;8.818;2022-10-18T03:56:04;13.13;;;9.60;;
10920;SDS011;5513;50.580;8.818;2022-10-18T03:58:34;11.33;;;8.37;;
10920;SDS011;5513;50.580;8.818;2022-10-18T04:01:03;11.40;;;9.10;;
10920;SDS011;5513;50.580;8.818;2022-10-18T04:03:32;10.70;;;8.80;;
10920;SDS011;5513;50.580;8.818;2022-10-18T04:06:01;14.97;;;10.10;;
10920;SDS011;5513;50.580;8.818;2022-10-18T04:08:29;12.73;;;10.33;;
10920;SDS011;5513;50.580;8.818;2022-10-18T04:10:57;10.53;;;8.67;;
10920;SDS011;5513;50.580;8.818;2022-10-18T04:13:25;10.67;;;9.17;;
10920;SDS011;5513;50.580;8.818;2022-10-18T04:15:55;8.73;;;6.10;;
10920;SDS011;5513;50.580;8.818;2022-10-18T04:18:24;4.23;;;2.67;;
10920;SDS011;5513;50.580;8.818;2022-10-18T04:20:53;3.80;;;2.10;;
10920;SDS011;5513;50.580;8.818;2022-10-18T04:23:21;2.40;;;2.03;;
10920;SDS011;5513;50.580;8.818;2022-10-18T04:25:49;2.90;;;2.30;;
10920;SDS011;5513;50.580;8.818;2022-10-18T04:28:18;2.77;;;2.30;;
10920;SDS011;5513;50.580;8.818;2022-10-18T04:30:49;3.20;;;2.30;;
10920;SDS011;5513;50.580;8.818;2022-10-18T04:33:20;5.50;;;2.63;;
10920;SDS011;5513;50.580;8.818;2022-10-18T04:35:49;3.77;;;2.73;;
10920;SDS011;5513;50.580;8.818;2022-10-18T04:38:19;3.43;;;3.13;;
10920;SDS011;5513;50.580;8.818;2022-10-18T04:40:48;4.17;;;3.40;;
10920;SDS011;5513;50.580;8.818;2022-10-18T04:43:17;6.10;;;3.70;;
10920;SDS011;5513;50.580;8.818;2022-10-18T04:45:46;4.57;;;4.17;;
10920;SDS011;5513;50.580;8.818;2022-10-18T04:48:16;5.53;;;3.50;;
10920;SDS011;5513;50.580;8.818;2022-10-18T04:50:48;3.47;;;3.17;;
10920;SDS011;5513;50.580;8.818;2022-10-18T04:53:17;4.23;;;3.33;;
10920;SDS011;5513;50.580;8.818;2022-10-18T04:55:46;3.67;;;2.70;;
10920;SDS011;5513;50.580;8.818;2022-10-18T04:58:16;2.57;;;2.00;;
10920;SDS011;5513;50.580;8.818;2022-10-18T05:00:45;2.53;;;2.00;;
10920;SDS011;5513;50.580;8.818;2022-10-18T05:03:15;2.83;;;2.00;;
10920;SDS011;5513;50.580;8.818;2022-10-18T05:05:45;2.40;;;2.20;;
10920;SDS011;5513;50.580;8.818;2022-10-18T05:08:31;2.73;;;2.30;;
10920;SDS011;5513;50.580;8.818;2022-10-18T05:11:00;2.40;;;2.20;;
10920;SDS011;5513;50.580;8.818;2022-10-18T05:13:28;3.07;;;2.27;;
10920;SDS011;5513;50.580;8.818;2022-10-18T05:15:57;2.30;;;2.10;;
10920;SDS011;5513;50.580;8.818;2022-10-18T05:18:26;2.27;;;1.97;;
10920;SDS011;5513;50.580;8.818;2022-10-18T05:20:54;2.43;;;2.07;;
10920;SDS011;5513;50.580;8.818;2022-10-18T05:23:23;2.40;;;2.20;;
10920;SDS011;5513;50.580;8.818;2022-10-18T05:25:53;2.27;;;2.07;;
10920;SDS011;5513;50.580;8.818;2022-10-18T05:28:22;2.80;;;2.13;;
10920;SDS011;5513;50.580;8.818;2022-10-18T05:31:07;3.57;;;2.67;;
10920;SDS011;5513;50.580;8.818;2022-10-18T05:33:37;4.23;;;3.07;;
10920;SDS011;5513;50.580;8.818;2022-10-18T05:36:05;3.77;;;2.93;;
10920;SDS011;5513;50.580;8.818;2022-10-18T05:38:36;3.63;;;3.20;;
10920;SDS011;5513;50.580;8.818;2022-10-18T05:41:11;3.63;;;2.77;;
10920;SDS011;5513;50.580;8.818;2022-10-18T05:43:40;3.60;;;2.60;;
10920;SDS011;5513;50.580;8.818;2022-10-18T05:46:08;2.83;;;2.63;;
10920;SDS011;5513;50.580;8.818;2022-10-18T05:48:41;3.97;;;3.10;;
10920;SDS011;5513;50.580;8.818;2022-10-18T05:51:10;3.37;;;2.83;;
10920;SDS011;5513;50.580;8.818;2022-10-18T05:53:38;3.33;;;3.00;;
10920;SDS011;5513;50.580;8.818;2022-10-18T05:56:07;4.07;;;3.03;;
10920;SDS011;5513;50.580;8.818;2022-10-18T05:58:39;5.47;;;3.83;;
10920;SDS011;5513;50.580;8.818;2022-10-18T06:01:08;9.27;;;5.07;;
10920;SDS011;5513;50.580;8.818;2022-10-18T06:03:37;7.77;;;4.80;;
10920;SDS011;5513;50.580;8.818;2022-10-18T06:06:07;6.67;;;4.20;;
10920;SDS011;5513;50.580;8.818;2022-10-18T06:08:37;4.30;;;3.57;;
10920;SDS011;5513;50.580;8.818;2022-10-18T06:11:07;7.37;;;3.47;;
10920;SDS011;5513;50.580;8.818;2022-10-18T06:13:41;4.87;;;3.37;;
10920;SDS011;5513;50.580;8.818;2022-10-18T06:16:11;5.67;;;3.17;;
10920;SDS011;5513;50.580;8.818;2022-10-18T06:18:46;4.93;;;3.37;;
10920;SDS011;5513;50.580;8.818;2022-10-18T06:21:14;6.63;;;4.13;;
10920;SDS011;5513;50.580;8.818;2022-10-18T06:23:46;6.00;;;4.00;;
10920;SDS011;5513;50.580;8.818;2022-10-18T06:26:15;8.03;;;4.53;;
10920;SDS011;5513;50.580;8.818;2022-10-18T06:28:45;5.70;;;4.57;;
10920;SDS011;5513;50.580;8.818;2022-10-18T06:31:14;6.10;;;4.33;;
10920;SDS011;5513;50.580;8.818;2022-10-18T06:33:43;7.17;;;4.33;;
10920;SDS011;5513;50.580;8.818;2022-10-18T06:36:13;4.77;;;4.20;;
10920;SDS011;5513;50.580;8.818;2022-10-18T06:38:43;5.20;;;4.67;;
10920;SDS011;5513;50.580;8.818;2022-10-18T06:41:11;6.30;;;4.40;;
10920;SDS011;5513;50.580;8.818;2022-10-18T06:43:48;5.90;;;4.30;;
10920;SDS011;5513;50.580;8.818;2022-10-18T06:46:16;6.77;;;4.87;;
10920;SDS011;5513;50.580;8.818;2022-10-18T06:48:45;6.00;;;5.40;;
10920;SDS011;5513;50.580;8.818;2022-10-18T06:51:18;7.27;;;4.63;;
10920;SDS011;5513;50.580;8.818;2022-10-18T06:53:47;5.07;;;4.57;;
10920;SDS011;5513;50.580;8.818;2022-10-18T06:56:35;5.80;;;4.93;;
10920;SDS011;5513;50.580;8.818;2022-10-18T06:59:06;5.80;;;4.70;;
10920;SDS011;5513;50.580;8.818;2022-10-18T07:01:35;6.23;;;4.50;;
10920;SDS011;5513;50.580;8.818;2022-10-18T07:04:03;6.23;;;4.50;;
10920;SDS011;5513;50.580;8.818;2022-10-18T07:06:32;6.97;;;4.80;;
10920;SDS011;5513;50.580;8.818;2022-10-18T07:09:00;5.33;;;4.30;;
10920;SDS011;5513;50.580;8.818;2022-10-18T07:11:29;4.90;;;4.47;;
10920;SDS011;5513;50.580;8.818;2022-10-18T07:13:58;5.27;;;4.17;;
10920;SDS011;5513;50.580;8.818;2022-10-18T07:16:32;5.87;;;4.23;;
10920;SDS011;5513;50.580;8.818;2022-10-18T07:19:01;4.90;;;4.20;;
10920;SDS011;5513;50.580;8.818;2022-10-18T07:21:30;5.40;;;4.03;;
10920;SDS011;5513;50.580;8.818;2022-10-18T07:23:58;5.43;;;3.80;;
10920;SDS011;5513;50.580;8.818;2022-10-18T07:26:27;3.47;;;3.10;;
10920;SDS011;5513;50.580;8.818;2022-10-18T07:28:58;5.17;;;3.50;;
10920;SDS011;5513;50.580;8.818;2022-10-18T07:31:29;4.63;;;3.60;;
10920;SDS011;5513;50.580;8.818;2022-10-18T07:33:59;5.43;;;3.80;;
10920;SDS011;5513;50.580;8.818;2022-10-18T07:36:27;7.70;;;3.63;;
10920;SDS011;5513;50.580;8.818;2022-10-18T07:38:56;6.57;;;3.27;;
10920;SDS011;5513;50.580;8.818;2022-10-18T07:41:25;5.13;;;3.00;;
10920;SDS011;5513;50.580;8.818;2022-10-18T07:43:54;4.97;;;2.93;;
10920;SDS011;5513;50.580;8.818;2022-10-18T07:46:22;2.73;;;2.53;;
10920;SDS011;5513;50.580;8.818;2022-10-18T07:48:52;2.83;;;2.53;;
10920;SDS011;5513;50.580;8.818;2022-10-18T07:51:25;4.37;;;2.37;;
10920;SDS011;5513;50.580;8.818;2022-10-18T07:53:59;3.27;;;2.10;;
10920;SDS011;5513;50.580;8.818;2022-10-18T07:56:28;3.90;;;2.30;;
10920;SDS011;5513;50.580;8.818;2022-10-18T07:58:56;2.93;;;1.80;;
10920;SDS011;5513;50.580;8.818;2022-10-18T08:01:26;4.33;;;1.83;;
10920;SDS011;5513;50.580;8.818;2022-10-18T08:03:54;5.60;;;2.40;;
10920;SDS011;5513;50.580;8.818;2022-10-18T08:06:32;4.37;;;2.00;;
10920;SDS011;5513;50.580;8.818;2022-10-18T08:09:01;2.20;;;1.70;;
10920;SDS011;5513;50.580;8.818;2022-10-18T08:11:29;3.87;;;1.90;;
10920;SDS011;5513;50.580;8.818;2022-10-18T08:13:58;2.40;;;1.60;;
10920;SDS011;5513;50.580;8.818;2022-10-18T08:16:27;2.63;;;1.60;;
10920;SDS011;5513;50.580;8.818;2022-10-18T08:18:57;35.73;;;31.90;;
10920;SDS011;5513;50.580;8.818;2022-10-18T08:21:26;16.27;;;14.80;;
10920;SDS011;5513;50.580;8.818;2022-10-18T08:24:02;11.77;;;10.77;;
10920;SDS011;5513;50.580;8.818;2022-10-18T08:26:33;6.03;;;4.87;;
10920;SDS011;5513;50.580;8.818;2022-10-18T08:29:03;2.97;;;2.63;;
10920;SDS011;5513;50.580;8.818;2022-10-18T08:31:50;2.00;;;1.37;;
10920;SDS011;5513;50.580;8.818;2022-10-18T08:34:19;1.27;;;1.13;;
10920;SDS011;5513;50.580;8.818;2022-10-18T08:36:48;1.27;;;1.17;;
10920;SDS011;5513;50.580;8.818;2022-10-18T08:39:19;2.83;;;1.27;;
10920;SDS011;5513;50.580;8.818;2022-10-18T08:41:54;2.17;;;1.30;;
10920;SDS011;5513;50.580;8.818;2022-10-18T08:44:38;5.17;;;3.70;;
10920;SDS011;5513;50.580;8.818;2022-10-18T08:47:12;2.47;;;1.33;;
10920;SDS011;5513;50.580;8.818;2022-10-18T08:49:44;1.57;;;1.10;;
10920;SDS011;5513;50.580;8.818;2022-10-18T08:52:18;1.70;;;1.17;;
10920;SDS011;5513;50.580;8.818;2022-10-18T08:54:59;1.67;;;1.03;;
10920;SDS011;5513;50.580;8.818;2022-10-18T08:57:29;2.43;;;1.40;;
10920;SDS011;5513;50.580;8.818;2022-10-18T09:00:00;3.10;;;1.70;;
10920;SDS011;5513;50.580;8.818;2022-10-18T09:02:34;2.73;;;1.60;;
10920;SDS011;5513;50.580;8.818;2022-10-18T09:05:15;4.13;;;1.80;;
10920;SDS011;5513;50.580;8.818;2022-10-18T09:10:52;4.77;;;1.70;;
10920;SDS011;5513;50.580;8.818;2022-10-18T09:13:35;3.97;;;2.00;;
10920;SDS011;5513;50.580;8.818;2022-10-18T09:16:26;2.90;;;1.60;;
10920;SDS011;5513;50.580;8.818;2022-10-18T09:19:02;1.33;;;1.23;;
10920;SDS011;5513;50.580;8.818;2022-10-18T09:21:39;3.13;;;1.67;;
10920;SDS011;5513;50.580;8.818;2022-10-18T09:24:20;5.97;;;1.60;;
10920;SDS011;5513;50.580;8.818;2022-10-18T09:27:00;3.03;;;1.73;;
10920;SDS011;5513;50.580;8.818;2022-10-18T09:29:38;3.93;;;1.87;;
10920;SDS011;5513;50.580;8.818;2022-10-18T09:32:27;4.00;;;2.07;;
10920;SDS011;5513;50.580;8.818;2022-10-18T09:35:04;2.70;;;1.70;;
10920;SDS011;5513;50.580;8.818;2022-10-18T09:37:42;3.40;;;1.97;;
10920;SDS011;5513;50.580;8.818;2022-10-18T09:40:14;3.03;;;1.73;;
10920;SDS011;5513;50.580;8.818;2022-10-18T09:42:52;2.33;;;1.70;;
10920;SDS011;5513;50.580;8.818;2022-10-18T09:45:39;2.13;;;1.90;;
10920;SDS011;5513;50.580;8.818;2022-10-18T09:48:17;4.63;;;1.90;;
10920;SDS011;5513;50.580;8.818;2022-10-18T09:50:51;2.00;;;1.80;;
10920;SDS011;5513;50.580;8.818;2022-10-18T09:53:26;2.03;;;1.57;;
10920;SDS011;5513;50.580;8.818;2022-10-18T09:56:05;2.00;;;1.60;;
10920;SDS011;5513;50.580;8.818;2022-10-18T09:58:41;2.47;;;1.70;;
10920;SDS011;5513;50.580;8.818;2022-10-18T10:01:14;2.37;;;1.40;;
10920;SDS011;5513;50.580;8.818;2022-10-18T10:03:49;1.93;;;1.50;;
10920;SDS011;5513;50.580;8.818;2022-10-18T10:06:23;4.03;;;1.60;;
10920;SDS011;5513;50.580;8.818;2022-10-18T10:08:58;3.50;;;1.60;;
10920;SDS011;5513;50.580;8.818;2022-10-18T10:11:33;2.00;;;1.80;;
10920;SDS011;5513;50.580;8.818;2022-10-18T10:14:14;4.70;;;1.80;;
10920;SDS011;5513;50.580;8.818;2022-10-18T10:16:49;1.57;;;1.47;;
10920;SDS011;5513;50.580;8.818;2022-10-18T10:19:27;1.83;;;1.67;;
10920;SDS011;5513;50.580;8.818;2022-10-18T10:22:01;2.00;;;1.80;;
10920;SDS011;5513;50.580;8.818;2022-10-18T10:24:34;1.60;;;1.50;;
10920;SDS011;5513;50.580;8.818;2022-10-18T10:27:16;1.67;;;1.40;;
10920;SDS011;5513;50.580;8.818;2022-10-18T10:29:55;2.77;;;1.50;;
10920;SDS011;5513;50.580;8.818;2022-10-18T10:32:42;2.40;;;1.40;;
10920;SDS011;5513;50.580;8.818;2022-10-18T10:35:20;1.13;;;0.97;;
10920;SDS011;5513;50.580;8.818;2022-10-18T10:38:21;1.10;;;1.00;;
10920;SDS011;5513;50.580;8.818;2022-10-18T10:40:52;1.80;;;1.70;;
10920;SDS011;5513;50.580;8.818;2022-10-18T10:43:25;1.60;;;1.50;;
10920;SDS011;5513;50.580;8.818;2022-10-18T10:46:07;2.30;;;1.97;;
10920;SDS011;5513;50.580;8.818;2022-10-18T10:48:40;2.40;;;2.20;;
10920;SDS011;5513;50.580;8.818;2022-10-18T10:51:15;4.10;;;2.17;;
10920;SDS011;5513;50.580;8.818;2022-10-18T10:53:48;2.23;;;1.90;;
10920;SDS011;5513;50.580;8.818;2022-10-18T10:56:24;3.23;;;1.93;;
10920;SDS011;5513;50.580;8.818;2022-10-18T10:58:56;2.13;;;1.93;;
10920;SDS011;5513;50.580;8.818;2022-10-18T11:01:35;5.33;;;2.40;;
10920;SDS011;5513;50.580;8.818;2022-10-18T11:06:52;3.80;;;3.50;;
10920;SDS011;5513;50.580;8.818;2022-10-18T11:09:39;4.50;;;3.90;;
10920;SDS011;5513;50.580;8.818;2022-10-18T11:12:15;5.00;;;3.30;;
10920;SDS011;5513;50.580;8.818;2022-10-18T11:14:51;3.40;;;3.00;;
10920;SDS011;5513;50.580;8.818;2022-10-18T11:17:33;5.20;;;2.40;;
10920;SDS011;5513;50.580;8.818;2022-10-18T11:20:13;2.60;;;2.40;;
10920;SDS011;5513;50.580;8.818;2022-10-18T11:23:00;3.53;;;2.10;;
10920;SDS011;5513;50.580;8.818;2022-10-18T11:25:42;2.80;;;2.20;;
10920;SDS011;5513;50.580;8.818;2022-10-18T11:28:17;2.53;;;2.30;;
10920;SDS011;5513;50.580;8.818;2022-10-18T11:30:57;3.27;;;2.33;;
10920;SDS011;5513;50.580;8.818;2022-10-18T11:33:44;2.60;;;2.40;;
10920;SDS011;5513;50.580;8.818;2022-10-18T11:36:37;3.17;;;2.00;;
10920;SDS011;5513;50.580;8.818;2022-10-18T11:39:30;3.57;;;3.17;;
10920;SDS011;5513;50.580;8.818;2022-10-18T11:42:07;3.20;;;2.80;;
10920;SDS011;5513;50.580;8.818;2022-10-18T11:44:49;4.23;;;2.50;;
10920;SDS011;5513;50.580;8.818;2022-10-18T11:47:31;2.73;;;2.40;;
10920;SDS011;5513;50.580;8.818;2022-10-18T11:50:12;3.53;;;2.37;;
10920;SDS011;5513;50.580;8.818;2022-10-18T11:52:55;3.17;;;2.40;;
10920;SDS011;5513;50.580;8.818;2022-10-18T11:55:36;3.50;;;2.17;;
10920;SDS011;5513;50.580;8.818;2022-10-18T11:58:20;3.20;;;2.13;;
10920;SDS011;5513;50.580;8.818;2022-10-18T12:01:01;2.27;;;1.80;;
10920;SDS011;5513;50.580;8.818;2022-10-18T12:03:44;2.43;;;2.20;;
10920;SDS011;5513;50.580;8.818;2022-10-18T12:06:24;2.20;;;1.80;;
10920;SDS011;5513;50.580;8.818;2022-10-18T12:09:01;2.00;;;1.80;;
10920;SDS011;5513;50.580;8.818;2022-10-18T12:11:36;2.10;;;1.90;;
10920;SDS011;5513;50.580;8.818;2022-10-18T12:14:16;2.20;;;1.80;;
10920;SDS011;5513;50.580;8.818;2022-10-18T12:16:51;2.47;;;2.20;;
10920;SDS011;5513;50.580;8.818;2022-10-18T12:19:44;3.37;;;2.13;;
10920;SDS011;5513;50.580;8.818;2022-10-18T12:22:17;3.00;;;2.20;;
10920;SDS011;5513;50.580;8.818;2022-10-18T12:24:51;2.90;;;2.23;;
10920;SDS011;5513;50.580;8.818;2022-10-18T12:27:25;3.97;;;2.37;;
10920;SDS011;5513;50.580;8.818;2022-10-18T12:30:05;3.73;;;2.10;;
10920;SDS011;5513;50.580;8.818;2022-10-18T12:32:42;3.07;;;1.90;;
10920;SDS011;5513;50.580;8.818;2022-10-18T12:35:33;2.30;;;1.80;;
10920;SDS011;5513;50.580;8.818;2022-10-18T12:38:22;2.00;;;1.90;;
10920;SDS011;5513;50.580;8.818;2022-10-18T12:40:56;2.10;;;1.87;;
10920;SDS011;5513;50.580;8.818;2022-10-18T12:43:26;3.30;;;1.93;;
10920;SDS011;5513;50.580;8.818;2022-10-18T12:46:05;3.80;;;1.90;;
10920;SDS011;5513;50.580;8.818;2022-10-18T12:48:39;2.05;;;1.73;;
10920;SDS011;5513;50.580;8.818;2022-10-18T12:51:13;3.88;;;1.85;;
10920;SDS011;5513;50.580;8.818;2022-10-18T12:53:48;4.25;;;2.00;;
10920;SDS011;5513;50.580;8.818;2022-10-18T12:56:35;4.63;;;1.90;;
10920;SDS011;5513;50.580;8.818;2022-10-18T13:05:00;2.05;;;1.63;;
10920;SDS011;5513;50.580;8.818;2022-10-18T13:17:33;3.42;;;1.52;;
10920;SDS011;5513;50.580;8.818;2022-10-18T13:20:15;3.55;;;1.52;;
10920;SDS011;5513;50.580;8.818;2022-10-18T13:23:06;1.65;;;1.40;;
10920;SDS011;5513;50.580;8.818;2022-10-18T13:25:51;2.60;;;1.65;;
10920;SDS011;5513;50.580;8.818;2022-10-18T13:28:28;3.08;;;1.65;;
10920;SDS011;5513;50.580;8.818;2022-10-18T13:31:08;3.10;;;1.65;;
10920;SDS011;5513;50.580;8.818;2022-10-18T13:33:44;3.20;;;1.60;;
10920;SDS011;5513;50.580;8.818;2022-10-18T13:36:19;3.22;;;1.58;;
10920;SDS011;5513;50.580;8.818;2022-10-18T13:39:00;3.75;;;1.60;;
10920;SDS011;5513;50.580;8.818;2022-10-18T13:42:16;1.92;;;1.60;;
10920;SDS011;5513;50.580;8.818;2022-10-18T13:44:38;2.05;;;1.90;;
10920;SDS011;5513;50.580;8.818;2022-10-18T13:47:09;1.83;;;1.70;;
10920;SDS011;5513;50.580;8.818;2022-10-18T13:58:57;2.15;;;1.80;;
10920;SDS011;5513;50.580;8.818;2022-10-18T14:01:44;2.28;;;1.92;;
10920;SDS011;5513;50.580;8.818;2022-10-18T14:04:41;2.78;;;2.00;;
10920;SDS011;5513;50.580;8.818;2022-10-18T14:07:49;1.90;;;1.70;;
10920;SDS011;5513;50.580;8.818;2022-10-18T14:10:24;1.98;;;1.88;;
10920;SDS011;5513;50.580;8.818;2022-10-18T14:13:16;2.10;;;1.90;;
10920;SDS011;5513;50.580;8.818;2022-10-18T14:15:51;2.10;;;1.90;;
10920;SDS011;5513;50.580;8.818;2022-10-18T14:18:24;4.67;;;2.03;;
10920;SDS011;5513;50.580;8.818;2022-10-18T14:20:58;6.72;;;2.17;;
10920;SDS011;5513;50.580;8.818;2022-10-18T14:23:42;2.37;;;2.07;;
10920;SDS011;5513;50.580;8.818;2022-10-18T14:26:12;2.35;;;2.15;;
10920;SDS011;5513;50.580;8.818;2022-10-18T14:28:43;2.60;;;2.23;;
10920;SDS011;5513;50.580;8.818;2022-10-18T14:31:28;2.00;;;1.90;;
10920;SDS011;5513;50.580;8.818;2022-10-18T14:33:58;3.10;;;2.13;;
10920;SDS011;5513;50.580;8.818;2022-10-18T14:36:29;3.10;;;2.13;;
10920;SDS011;5513;50.580;8.818;2022-10-18T14:39:04;3.27;;;2.00;;
10920;SDS011;5513;50.580;8.818;2022-10-18T14:41:35;3.57;;;2.30;;
10920;SDS011;5513;50.580;8.818;2022-10-18T14:44:13;2.80;;;2.30;;
10920;SDS011;5513;50.580;8.818;2022-10-18T14:46:51;3.13;;;1.90;;
10920;SDS011;5513;50.580;8.818;2022-10-18T14:49:27;4.33;;;2.10;;
10920;SDS011;5513;50.580;8.818;2022-10-18T14:51:58;4.57;;;2.27;;
10920;SDS011;5513;50.580;8.818;2022-10-18T14:54:28;3.93;;;2.30;;
10920;SDS011;5513;50.580;8.818;2022-10-18T14:57:00;3.00;;;2.10;;
10920;SDS011;5513;50.580;8.818;2022-10-18T14:59:31;5.43;;;2.17;;
10920;SDS011;5513;50.580;8.818;2022-10-18T15:02:09;4.90;;;2.30;;
10920;SDS011;5513;50.580;8.818;2022-10-18T15:04:42;2.87;;;2.03;;
10920;SDS011;5513;50.580;8.818;2022-10-18T15:07:14;2.53;;;2.23;;
10920;SDS011;5513;50.580;8.818;2022-10-18T15:09:44;2.77;;;2.47;;
10920;SDS011;5513;50.580;8.818;2022-10-18T15:12:15;4.23;;;2.57;;
10920;SDS011;5513;50.580;8.818;2022-10-18T15:14:46;4.97;;;2.33;;
10920;SDS011;5513;50.580;8.818;2022-10-18T15:17:19;3.67;;;2.27;;
10920;SDS011;5513;50.580;8.818;2022-10-18T15:19:55;3.07;;;1.97;;
10920;SDS011;5513;50.580;8.818;2022-10-18T15:22:31;2.70;;;2.20;;
10920;SDS011;5513;50.580;8.818;2022-10-18T15:25:11;3.73;;;1.93;;
10920;SDS011;5513;50.580;8.818;2022-10-18T15:27:44;5.55;;;2.30;;
10920;SDS011;5513;50.580;8.818;2022-10-18T15:30:17;3.72;;;1.83;;
10920;SDS011;5513;50.580;8.818;2022-10-18T15:32:51;6.65;;;2.22;;
10920;SDS011;5513;50.580;8.818;2022-10-18T15:35:24;5.28;;;1.80;;
10920;SDS011;5513;50.580;8.818;2022-10-18T15:37:56;4.38;;;1.92;;
10920;SDS011;5513;50.580;8.818;2022-10-18T15:40:35;8.32;;;2.25;;
10920;SDS011;5513;50.580;8.818;2022-10-18T15:43:32;3.63;;;1.70;;
10920;SDS011;5513;50.580;8.818;2022-10-18T15:46:02;5.53;;;2.00;;
10920;SDS011;5513;50.580;8.818;2022-10-18T15:48:37;2.28;;;2.08;;
10920;SDS011;5513;50.580;8.818;2022-10-18T15:51:07;4.67;;;2.30;;
10920;SDS011;5513;50.580;8.818;2022-10-18T15:53:49;2.90;;;1.92;;
10920;SDS011;5513;50.580;8.818;2022-10-18T15:56:30;5.35;;;2.05;;
10920;SDS011;5513;50.580;8.818;2022-10-18T15:59:00;4.47;;;2.30;;
10920;SDS011;5513;50.580;8.818;2022-10-18T16:01:32;4.13;;;2.23;;
10920;SDS011;5513;50.580;8.818;2022-10-18T16:04:08;3.87;;;2.20;;
10920;SDS011;5513;50.580;8.818;2022-10-18T16:06:43;4.90;;;2.80;;
10920;SDS011;5513;50.580;8.818;2022-10-18T16:09:14;4.87;;;2.53;;
10920;SDS011;5513;50.580;8.818;2022-10-18T16:11:44;6.60;;;2.63;;
10920;SDS011;5513;50.580;8.818;2022-10-18T16:14:23;4.27;;;2.83;;